Weather observations for the past three days for
Manning / Cooper Regional
Metric (Imperial)
Date Time (edt) Wind (kph) Vis. (km) Weather Sky Cond. Temperature (ºC) Relative Humidity Wind Chill (°C) Heat Index (°C) Pressure Precipitation (cm)
Air Dwpt 6 hour altimeter (cm) sea level (mb) 1 hr 3 hr 6 hr
Max. Min.
02 13:55 Calm 16.09 Fair CLR 35 24 53% 42 76.35 0.0
02 13:35 N 6 16.09 Fair CLR 35 25 56% 43 76.35 0.0
02 13:15 N 6 16.09 Partly Cloudy SCT043 35 25 56% 43 76.38 0.0
02 12:55 Calm 16.09 Fair CLR 35 24 53% 42 76.4 0.0
02 12:35 Calm 16.09 Fair CLR 33 24 59% 39 76.4 0.0
02 12:15 W 6 16.09 Fair CLR 33 24 59% 39 76.4 0.0
02 11:55 NW 6 16.09 Fair CLR 33 24 59% 39 76.43 0.0
02 11:35 Calm 16.09 Fair CLR 33 24 59% 39 76.43 0.0
02 11:15 SW 7 16.09 Fair CLR 32 24 63% 38 76.43 0.0
02 10:55 W 7 16.09 Fair CLR 32 23 59% 37 76.43 0.0
02 10:35 W 7 16.09 Fair CLR 32 23 59% 37 76.43 0.0
02 10:15 NW 6 16.09 Fair CLR 31 23 62% 35 76.43 0.0
02 09:55 W 6 16.09 Fair CLR 31 24 66% 37 76.43 0.0
02 09:35 Calm 16.09 Fair CLR 30 23 66% 34 76.43 0.0
02 09:15 Calm 16.09 Fair CLR 29 25 79% 35 76.43 0.0
02 08:55 NW 6 16.09 Fair CLR 28 25 84% 33 76.45 0.0
02 08:35 Calm 16.09 Fair CLR 26 25 94% 28 76.45 0.0
02 08:15 Calm 16.09 Fair CLR 25 25 100% 25 76.45 0.0
02 07:55 Calm 16.09 Fair CLR 25 24 94% 26 76.45 0.0
02 07:35 Calm 16.09 Fair CLR 24 24 100% 23 76.43 0.0
02 07:15 Calm 16.09 Fair CLR 24 23 94% 23 76.4 0.0
02 06:55 Calm 16.09 Fair CLR 24 24 100% 23 76.43 0.0
02 06:35 Calm 16.09 Fair CLR 24 23 94% 23 76.4 0.0
02 06:15 Calm 16.09 Fair CLR 24 24 100% 23 76.4 0.0
02 05:55 Calm 16.09 Fair CLR 24 24 100% 23 76.4 0.0
02 05:35 Calm 16.09 Fair CLR 24 24 100% 23 76.38 0.0
02 05:15 Calm 16.09 Fair CLR 25 24 94% 26 76.38 0.0
02 04:55 Calm 16.09 Fair CLR 25 24 94% 26 76.38 0.0
02 04:35 Calm 16.09 Fair CLR 25 24 94% 26 76.38 0.0
02 04:15 Calm 16.09 Fair CLR 25 24 94% 26 76.35 0.0
02 03:55 Calm 16.09 Fair CLR 25 25 100% 25 76.35 0.0
02 03:35 Calm 16.09 Fair CLR 25 25 100% 25 76.35 0.0
02 03:15 Calm 16.09 Fair CLR 25 25 100% 25 76.35 0.0
02 02:55 Calm 16.09 Fair CLR 25 25 100% 25 76.35 0.0
02 02:35 Calm 16.09 Fair CLR 25 25 100% 25 76.35 0.0
02 02:15 Calm 16.09 Fair CLR 26 25 94% 28 76.35 0.0
02 01:55 Calm 16.09 Fair CLR 26 25 94% 28 76.38 0.0
02 01:35 Calm 16.09 Fair CLR 27 25 89% 31 76.38 0.0
02 01:15 Calm 16.09 Fair CLR 27 25 89% 31 76.38 0.0
02 00:55 Calm 16.09 Fair CLR 27 25 89% 31 76.38 0.0
02 00:35 Calm 16.09 Fair CLR 27 25 89% 31 76.38 0.0
02 00:15 Calm 16.09 Fair CLR 28 25 84% 33 76.38 0.0
01 23:55 SW 6 16.09 Fair CLR 28 25 84% 33 76.38 0.0
01 23:35 SW 9 16.09 Fair CLR 28 25 84% 33 76.35 0.0
01 23:15 SW 11 16.09 Fair CLR 27 25 89% 31 76.35 0.0
01 22:55 S 6 16.09 Fair CLR 28 25 84% 33 76.35 0.0
01 22:35 S 6 16.09 Fair CLR 28 25 84% 33 76.38 0.0
01 22:15 S 7 16.09 Fair CLR 28 25 84% 33 76.38 0.0
01 21:55 S 7 16.09 Fair CLR 28 25 84% 33 76.35 0.0
01 21:35 S 7 16.09 Fair CLR 28 25 84% 33 76.33 0.0
01 21:15 S 7 16.09 Fair CLR 29 25 79% 35 76.33 0.0
01 20:55 S 9 16.09 Fair CLR 30 25 75% 36 76.3 0.0
01 20:35 S 7 16.09 Fair CLR 30 26 79% 37 76.28 0.0
01 20:15 S 7 16.09 Fair CLR 29 25 79% 35 76.28 0.0
01 19:55 Calm 16.09 Fair CLR 30 25 75% 36 76.25 0.0
01 19:35 Calm 16.09 Fair CLR 31 25 70% 38 76.25 0.0
01 19:15 Calm 16.09 Fair CLR 32 25 67% 39 76.25 0.0
01 18:55 Calm 16.09 Fair CLR 33 24 59% 39 76.28 0.0
01 18:35 Calm 16.09 Fair CLR 35 23 50% 41 76.28 0.0
01 18:15 Calm 16.09 Fair CLR 35 23 50% 41 76.28 0.0
01 17:55 S 6 16.09 Fair CLR 35 23 50% 41 76.25 0.0
01 17:35 S 6 16.09 Fair CLR 35 22 47% 39 76.28 0.0
01 17:15 S 6 16.09 Fair CLR 35 22 47% 39 76.28 0.0
01 16:55 S 7 16.09 Fair CLR 35 22 47% 39 76.28 0.0
01 16:35 S 6 16.09 Fair CLR 35 22 47% 39 76.28 0.0
01 16:15 E 9 16.09 Fair CLR 35 23 50% 41 76.28 0.0
01 15:55 E 7 16.09 Partly Cloudy SCT050 35 23 50% 41 76.3 0.0
01 15:35 E 6 16.09 Partly Cloudy SCT050 35 23 50% 41 76.33 0.0
01 15:15 NE 6 16.09 Partly Cloudy SCT055 35 22 47% 39 76.33 0.0
01 14:55 E 6 16.09 Partly Cloudy SCT050 35 23 50% 41 76.33 0.0
01 14:35 Calm 11.27 Partly Cloudy SCT048 35 23 50% 41 76.35 0.0
01 14:15 NE 9 16.09 Partly Cloudy SCT048 35 23 50% 41 76.38 0.0
01 13:55 Calm 16.09 Partly Cloudy SCT044 33 23 56% 38 76.38 0.0
01 13:35 E 6 16.09 Partly Cloudy SCT044 33 23 56% 38 76.4 0.0
01 13:15 N 9 16.09 Partly Cloudy SCT046 33 23 56% 38 76.4 0.0
01 12:55 NE 7 16.09 Fair CLR 34 23 53% 39 76.43 0.0
01 12:35 NE 6 16.09 Fair CLR 33 23 56% 38 76.43 0.0
01 12:15 Calm 16.09 Fair CLR 33 24 59% 39 76.45 0.0
01 11:55 NE 6 16.09 Fair CLR 32 24 63% 38 76.45 0.0
01 11:35 Calm 16.09 Fair CLR 32 25 67% 39 76.48 0.0
01 11:15 N 6 11.27 Fair CLR 32 24 63% 38 76.48 0.0
01 10:55 N 9 11.27 Fair CLR 31 25 70% 38 76.5 0.0
01 10:35 N 7 16.09 Fair CLR 31 25 70% 38 76.5 0.0
01 10:15 N 6 16.09 Fair CLR 30 25 75% 36 76.5 0.0
01 09:55 N 6 16.09 Fair CLR 30 25 75% 36 76.48 0.0
01 09:35 Calm 16.09 Fair CLR 28 25 84% 33 76.48 0.0
01 09:15 Calm 16.09 Fair CLR 28 25 84% 33 76.48 0.0
01 08:55 N 6 16.09 Fair CLR 27 25 89% 31 76.48 0.0
01 08:35 Calm 11.27 Fair CLR 26 25 94% 28 76.48 0.0
01 08:15 Calm 16.09 Fair CLR 25 24 94% 26 76.48 0.0
01 07:55 Calm 16.09 Fair CLR 24 24 100% 23 76.45 0.0
01 07:35 Calm 16.09 Fair CLR 23 23 100% 76.45 0.0
01 07:15 Calm 11.27 Fair CLR 23 23 100% 76.43 0.0
01 06:55 Calm 16.09 Partly Cloudy SCT001 23 23 100% 76.4 0.0
01 06:35 Calm 11.27 Mostly Cloudy BKN001 23 23 100% 76.4 0.0
01 06:15 Calm 11.27 Partly Cloudy SCT001 23 23 100% 76.4 0.0
01 05:55 Calm 11.27 Partly Cloudy SCT001 23 23 100% 76.4 0.0
01 05:35 Calm 16.09 Fair CLR 23 23 100% 76.4 0.0
01 05:15 Calm 16.09 Fair CLR 23 23 100% 76.4 0.0
01 04:55 Calm 16.09 Fair CLR 24 23 94% 23 76.4 0.0
01 04:35 Calm 16.09 Fair CLR 24 24 100% 23 76.4 0.0
01 04:15 Calm 16.09 Fair CLR 23 23 100% 76.4 0.0
01 03:55 Calm 16.09 Fair CLR 24 24 100% 23 76.4 0.0
01 03:35 Calm 16.09 Fair CLR 24 24 100% 23 76.4 0.0
01 03:15 Calm 16.09 Fair CLR 24 24 100% 23 76.4 0.0
01 02:55 Calm 16.09 Fair CLR 25 25 100% 25 76.4 0.0
01 02:35 Calm 16.09 Fair CLR 25 25 100% 25 76.43 0.0
01 02:15 Calm 16.09 Fair CLR 25 25 100% 25 76.43 0.0
01 01:55 Calm 16.09 Fair CLR 25 25 100% 25 76.45 0.0
01 01:35 Calm 16.09 Fair CLR 25 25 100% 25 76.45 0.0
01 01:15 Calm 16.09 Fair CLR 25 25 100% 25 76.45 0.0
01 00:55 Calm 16.09 Fair CLR 26 25 94% 28 76.45 0.0
01 00:35 Calm 16.09 Fair CLR 26 25 94% 28 76.45 0.0
01 00:15 Calm 16.09 Fair CLR 26 25 94% 28 76.45 0.0
31 23:55 S 6 16.09 Fair CLR 26 26 100% 28 76.45 0.0
31 23:35 SE 6 16.09 Fair CLR 26 26 100% 28 76.45 0.0
31 23:15 Calm 16.09 Fair CLR 26 26 100% 28 76.45 0.0
31 22:55 S 6 16.09 Fair CLR 27 26 94% 31 76.45 0.0
31 22:35 S 6 16.09 Fair CLR 27 26 94% 31 76.45 0.0
31 22:15 Calm 16.09 Fair CLR 27 26 94% 31 76.43 0.0
31 21:55 S 6 16.09 Fair CLR 27 26 94% 31 76.43 0.0
31 21:35 Calm 16.09 Fair CLR 27 25 89% 31 76.4 0.0
31 21:15 S 7 11.27 Fair CLR 27 25 89% 31 76.4 0.0
31 20:55 S 6 16.09 Fair CLR 27 25 89% 31 76.4 0.0
31 20:35 SE 6 16.09 Fair CLR 28 25 84% 33 76.38 0.0
31 20:15 Calm 16.09 Fair CLR 28 26 89% 34 76.35 0.0
31 19:35 SE 7 16.09 Fair CLR 30 26 79% 37 76.35 0.0
31 19:15 Calm 16.09 Partly Cloudy SCT055 31 25 70% 38 76.33 0.0
31 18:55 S 6 16.09 Partly Cloudy SCT055 32 26 71% 41 76.35 0.0
31 18:35 Calm 16.09 Fair CLR 32 25 67% 39 76.33 0.0
31 18:15 Calm 16.09 Fair CLR 33 25 63% 41 76.33 0.0
31 17:55 S 6 16.09 Fair CLR 33 25 63% 41 76.33 0.0
31 17:35 SW 6 16.09 Fair CLR 33 25 63% 41 76.33 0.0
31 17:15 Calm 16.09 Fair CLR 32 25 67% 39 76.33 0.0
31 16:55 SW 6 16.09 Partly Cloudy SCT050 SCT055 32 25 67% 39 76.33 0.0
31 16:35 SE 6 16.09 Partly Cloudy SCT050 SCT055 SCT065 32 25 67% 39 76.35 0.0
31 16:15 S 11 16.09 Partly Cloudy SCT047 SCT065 SCT070 31 25 70% 38 76.35 0.0
31 15:55 SE 13 16.09 Mostly Cloudy SCT044 BKN050 BKN065 31 26 75% 39 76.38 0.0
31 15:35 Calm 16.09 Partly Cloudy SCT043 SCT049 34 23 53% 39 76.38 0.0
31 15:15 SE 6 16.09 Partly Cloudy SCT040 SCT047 SCT055 33 25 63% 41 76.4 0.0
31 14:55 N 6 16.09 Mostly Cloudy SCT040 BKN047 BKN055 34 24 56% 41 76.4 0.0
31 14:35 NW 6 16.09 Partly Cloudy SCT041 33 24 59% 39 76.43 0.0
31 14:15 Calm 16.09 Partly Cloudy SCT039 33 23 56% 38 76.43 0.0
31 13:55 SE 6 16.09 Partly Cloudy SCT036 33 23 56% 38 76.45 0.0
31 13:35 SE 7 16.09 Partly Cloudy SCT036 33 25 63% 41 76.5 0.0
31 13:15 N 7 16.09 Partly Cloudy SCT032 33 25 63% 41 76.53 0.0
31 12:55 S 6 16.09 Fair CLR 32 24 63% 38 76.53 0.0
31 12:35 Calm 16.09 Fair CLR 32 23 59% 37 76.53 0.0
31 12:15 E 7 16.09 Fair CLR 31 23 62% 35 76.56 0.0
31 11:55 Calm 16.09 Partly Cloudy SCT020 31 25 70% 38 76.56 0.0
31 11:35 N 6 16.09 Partly Cloudy SCT018 30 25 75% 36 76.56 0.0
31 11:15 Calm 16.09 Mostly Cloudy BKN014 30 25 75% 36 76.56 0.0
31 10:55 NE 11 16.09 Partly Cloudy SCT014 29 26 84% 36 76.56 0.0
31 10:35 NE 7 16.09 Partly Cloudy SCT008 28 25 84% 33 76.56 0.0
31 10:15 NE 6 16.09 Overcast OVC008 27 26 94% 31 76.53 0.0
31 09:55 NE 6 11.27 Overcast OVC006 26 26 100% 28 76.53 0.0
31 09:35 N 7 6.44 Fog/Mist OVC004 26 26 100% 28 76.56 0.0
31 09:15 NE 9 4.83 Fog/Mist OVC002 26 26 100% 28 76.53 0.0
31 08:55 N 7 2.41 Fog/Mist OVC002 25 25 100% 25 76.53 0.0
31 08:35 NE 6 1.61 Fog/Mist OVC002 25 25 100% 25 76.53 0.0
31 08:15 N 6 0.40 Fog OVC002 25 25 100% 25 76.5 0.0
31 07:55 N 9 0.40 Fog OVC002 25 25 100% 25 76.5 0.0
31 07:35 NE 6 0.24 Fog OVC002 25 25 100% 25 76.5 0.0
31 07:15 Calm 0.40 Fog OVC002 25 25 100% 25 76.5 0.0
31 06:55 Calm 0.80 Fog OVC002 25 25 100% 25 76.48 0.0
31 06:35 N 6 0.80 Fog OVC002 25 25 100% 25 76.48 0.0
31 06:15 Calm 0.80 Fog OVC002 25 25 100% 25 76.48 0.0
31 05:55 Calm 0.40 Fog OVC002 25 25 100% 25 76.48 0.0
31 05:35 N 6 0.80 Fog OVC002 25 25 100% 25 76.45 0.0
31 05:15 N 9 0.80 Fog OVC002 25 25 100% 25 76.45 0.0
31 04:55 Calm 0.40 Fog OVC002 25 25 100% 25 76.45 0.0
31 04:35 Calm 0.80 Fog OVC002 25 25 100% 25 76.45 0.0
31 04:15 N 9 1.21 Fog/Mist OVC002 25 25 100% 25 76.45 0.0
31 03:55 N 6 8.05 Fog/Mist OVC002 24 24 100% 23 76.45 0.0
31 03:35 Calm 8.05 Fog/Mist SCT002 23 23 100% 76.45 0.0
31 03:15 Calm 8.05 Fog/Mist CLR 24 24 100% 23 76.45 0.0
31 02:55 Calm 11.27 Fair CLR 24 24 100% 23 76.45 0.0
31 02:35 Calm 11.27 Fair CLR 24 24 100% 23 76.45 0.0
31 02:15 Calm 11.27 Fair CLR 24 24 100% 23 76.48 0.0
31 01:55 Calm 11.27 Fair CLR 25 25 100% 25 76.48 0.0
31 01:35 Calm 11.27 Fair CLR 25 25 100% 25 76.5 0.0
31 01:15 Calm 11.27 Fair CLR 25 25 100% 25 76.5 0.0
31 00:55 Calm 8.05 Fog/Mist CLR 25 25 100% 25 76.5 0.0
31 00:35 Calm 11.27 Fair CLR 25 25 100% 25 76.53 0.0
31 00:15 Calm 11.27 Fair CLR 25 25 100% 25 76.53 0.0
30 23:55 Calm 11.27 Fair CLR 25 25 100% 25 76.53 0.0
30 23:35 Calm 11.27 Fair CLR 25 25 100% 25 76.53 0.0
30 23:15 Calm 11.27 Fair CLR 25 25 100% 25 76.53 0.0
30 22:55 Calm 11.27 Fair CLR 25 25 100% 25 76.53 0.0
30 22:35 Calm 16.09 Fair CLR 25 25 100% 25 76.53 0.0
30 22:15 Calm 11.27 Fair CLR 25 25 100% 25 76.53 0.0
30 21:55 Calm 16.09 Fair CLR 25 25 100% 25 76.53 0.0
30 21:35 Calm 11.27 Fair CLR 25 25 100% 25 76.53 0.0
30 21:15 Calm 16.09 Fair CLR 26 25 94% 28 76.5 0.0
30 20:55 Calm 16.09 Fair CLR 25 25 100% 25 76.5 0.0
30 20:35 Calm 16.09 Fair CLR 26 26 100% 28 76.45 0.0
30 20:15 Calm 16.09 Fair CLR 26 26 100% 28 76.45 0.0
30 19:55 Calm 16.09 Fair CLR 26 26 100% 28 76.45 0.0
30 19:35 N 6 16.09 Partly Cloudy SCT085 SCT090 26 25 94% 28 76.45 0.0
30 19:15 Calm 16.09 Mostly Cloudy SCT070 BKN085 26 25 94% 28 76.45 0.0
30 18:55 Calm 16.09 Overcast OVC085 26 25 94% 28 76.48 0.0 0.03
30 18:35 E 7 16.09 Overcast BKN065 OVC085 27 26 94% 31 76.48 0.0 0.03
30 18:15 SE 6 16.09 Light Rain SCT021 SCT035 OVC065 27 26 94% 31 76.5 0.0 0.03
30 17:55 SE 6 1.21 Light Rain BKN013 OVC023 26 26 100% 28 76.48 0.0 0.97
30 17:35 S 13 11.27 Rain SCT022 BKN026 OVC032 27 24 84% 30 76.5 0.0 0.03
30 17:15 S 7 16.09 Thunderstorm in Vicinity SCT032 30 25 75% 36 76.5 0.0
30 16:55 NE 6 16.09 Fair CLR 30 25 75% 36 76.48 0.0
30 16:35 NE 7 16.09 Fair CLR 30 25 75% 36 76.48 0.0
30 16:15 NE 7 16.09 Partly Cloudy SCT030 30 25 75% 36 76.5 0.0
30 15:55 NE 9 16.09 Partly Cloudy SCT030 30 25 75% 36 76.5 0.0
30 15:35 N 11 16.09 Partly Cloudy SCT031 SCT038 SCT046 31 25 70% 38 76.5 0.0
30 15:15 NE 6 16.09 Partly Cloudy SCT037 SCT046 31 25 70% 38 76.53 0.0
30 14:55 N 6 16.09 Fair CLR 31 25 70% 38 76.53 0.0
30 14:35 NE 7 16.09 Fair CLR 31 25 70% 38 76.56 0.0
30 14:15 N 7 16.09 Fair CLR 30 24 70% 35 76.58 0.0
Date Time (edt) Wind (kph) Vis. (km) Weather Sky Cond. Air Dwpt Max. Min. Relative Humidity Wind Chill (°C) Heat Index (°C) altimeter (cm) sea level (mb) 1 hr 3 hr 6 hr
6 hour
Temperature (ºC) Pressure Precipitation (cm)